Flugplatz Westerland Sylt

Bericht für EDXW

vom 28.09. um 21:50 UTC

Wind 8 kt aus 130°

Sichtweite 10 km oder mehr

aufgebrochene Bewölkung in 19000 ft

Temperatur 14.0°C

Taupunkt 12.0°C

Luftfeuchtigkeit 88%

Luftdruck 1019 hPa

EDXW 282150Z AUTO 13008KT 9999 // BKN190/// 14/12 Q1019
Keine Prognose (TAF) verfügbar.
Impressum